sensor_id;sensor_type;location;lat;lon;timestamp;temperature;humidity
7317;DHT22;3699;51.462;6.696;2023-02-15T00:00:53;5.20;99.90
7317;DHT22;3699;51.462;6.696;2023-02-15T00:03:21;5.20;99.90
7317;DHT22;3699;51.462;6.696;2023-02-15T00:05:49;5.20;99.90
7317;DHT22;3699;51.462;6.696;2023-02-15T00:08:16;5.20;99.90
7317;DHT22;3699;51.462;6.696;2023-02-15T00:10:42;5.10;99.90
7317;DHT22;3699;51.462;6.696;2023-02-15T00:13:09;5.10;99.90
7317;DHT22;3699;51.462;6.696;2023-02-15T00:15:36;5.10;99.90
7317;DHT22;3699;51.462;6.696;2023-02-15T00:18:03;5.10;99.90
7317;DHT22;3699;51.462;6.696;2023-02-15T00:20:29;5.10;99.90
7317;DHT22;3699;51.462;6.696;2023-02-15T00:22:58;5.10;99.90
7317;DHT22;3699;51.462;6.696;2023-02-15T00:25:25;5.10;99.90
7317;DHT22;3699;51.462;6.696;2023-02-15T00:27:52;5.00;99.90
7317;DHT22;3699;51.462;6.696;2023-02-15T00:30:18;5.00;99.90
7317;DHT22;3699;51.462;6.696;2023-02-15T00:32:47;5.00;99.90
7317;DHT22;3699;51.462;6.696;2023-02-15T00:35:14;5.00;99.90
7317;DHT22;3699;51.462;6.696;2023-02-15T00:37:41;4.90;99.90
7317;DHT22;3699;51.462;6.696;2023-02-15T00:40:09;4.70;99.90
7317;DHT22;3699;51.462;6.696;2023-02-15T00:42:36;4.70;99.90
7317;DHT22;3699;51.462;6.696;2023-02-15T00:45:03;6.90;99.90
7317;DHT22;3699;51.462;6.696;2023-02-15T00:47:30;4.20;99.90
7317;DHT22;3699;51.462;6.696;2023-02-15T00:49:57;4.60;99.90
7317;DHT22;3699;51.462;6.696;2023-02-15T00:52:24;4.60;99.90
7317;DHT22;3699;51.462;6.696;2023-02-15T00:54:50;4.60;99.90
7317;DHT22;3699;51.462;6.696;2023-02-15T00:57:18;4.60;99.90
7317;DHT22;3699;51.462;6.696;2023-02-15T00:59:45;4.80;99.90
7317;DHT22;3699;51.462;6.696;2023-02-15T01:02:12;4.70;99.90
7317;DHT22;3699;51.462;6.696;2023-02-15T01:04:38;4.80;99.90
7317;DHT22;3699;51.462;6.696;2023-02-15T01:09:32;5.20;99.90
7317;DHT22;3699;51.462;6.696;2023-02-15T01:11:59;5.00;99.90
7317;DHT22;3699;51.462;6.696;2023-02-15T01:14:27;4.70;99.90
7317;DHT22;3699;51.462;6.696;2023-02-15T01:19:20;4.80;99.90
7317;DHT22;3699;51.462;6.696;2023-02-15T01:24:14;4.50;99.90
7317;DHT22;3699;51.462;6.696;2023-02-15T01:26:41;4.30;99.90
7317;DHT22;3699;51.462;6.696;2023-02-15T01:29:08;4.30;99.90
7317;DHT22;3699;51.462;6.696;2023-02-15T01:31:36;4.30;99.90
7317;DHT22;3699;51.462;6.696;2023-02-15T01:36:33;4.20;99.90
7317;DHT22;3699;51.462;6.696;2023-02-15T01:39:01;4.40;99.90
7317;DHT22;3699;51.462;6.696;2023-02-15T01:43:58;4.00;99.90
7317;DHT22;3699;51.462;6.696;2023-02-15T01:46:28;4.00;99.90
7317;DHT22;3699;51.462;6.696;2023-02-15T01:49:03;4.00;99.90
7317;DHT22;3699;51.462;6.696;2023-02-15T01:51:35;4.10;99.90
7317;DHT22;3699;51.462;6.696;2023-02-15T01:54:07;3.90;99.90
7317;DHT22;3699;51.462;6.696;2023-02-15T01:56:36;4.00;99.90
7317;DHT22;3699;51.462;6.696;2023-02-15T01:59:07;4.10;99.90
7317;DHT22;3699;51.462;6.696;2023-02-15T02:01:34;4.10;99.90
7317;DHT22;3699;51.462;6.696;2023-02-15T02:04:08;3.80;99.90
7317;DHT22;3699;51.462;6.696;2023-02-15T02:06:37;4.00;99.90
7317;DHT22;3699;51.462;6.696;2023-02-15T02:11:32;4.00;99.90
7317;DHT22;3699;51.462;6.696;2023-02-15T02:14:00;3.90;99.90
7317;DHT22;3699;51.462;6.696;2023-02-15T02:16:32;4.20;99.90
7317;DHT22;3699;51.462;6.696;2023-02-15T02:27:57;3.50;99.90
7317;DHT22;3699;51.462;6.696;2023-02-15T02:30:49;3.90;99.90
7317;DHT22;3699;51.462;6.696;2023-02-15T02:33:40;3.90;99.90
7317;DHT22;3699;51.462;6.696;2023-02-15T02:36:15;4.00;99.90
7317;DHT22;3699;51.462;6.696;2023-02-15T02:38:53;3.60;99.90
7317;DHT22;3699;51.462;6.696;2023-02-15T02:41:28;3.70;99.90
7317;DHT22;3699;51.462;6.696;2023-02-15T02:44:01;3.60;99.90
7317;DHT22;3699;51.462;6.696;2023-02-15T02:46:32;3.70;99.90
7317;DHT22;3699;51.462;6.696;2023-02-15T02:49:02;3.80;99.90
7317;DHT22;3699;51.462;6.696;2023-02-15T02:51:29;3.80;99.90
7317;DHT22;3699;51.462;6.696;2023-02-15T02:54:00;3.70;99.90
7317;DHT22;3699;51.462;6.696;2023-02-15T02:56:30;3.80;99.90
7317;DHT22;3699;51.462;6.696;2023-02-15T02:59:02;3.80;99.90
7317;DHT22;3699;51.462;6.696;2023-02-15T03:01:33;3.70;99.90
7317;DHT22;3699;51.462;6.696;2023-02-15T03:04:06;3.60;99.90
7317;DHT22;3699;51.462;6.696;2023-02-15T03:06:38;3.50;99.90
7317;DHT22;3699;51.462;6.696;2023-02-15T03:09:10;3.50;99.90
7317;DHT22;3699;51.462;6.696;2023-02-15T03:14:09;3.50;99.90
7317;DHT22;3699;51.462;6.696;2023-02-15T03:16:37;3.30;99.90
7317;DHT22;3699;51.462;6.696;2023-02-15T03:19:09;3.50;99.90
7317;DHT22;3699;51.462;6.696;2023-02-15T03:21:40;3.40;99.90
7317;DHT22;3699;51.462;6.696;2023-02-15T03:24:10;3.40;99.90
7317;DHT22;3699;51.462;6.696;2023-02-15T03:26:40;3.20;99.90
7317;DHT22;3699;51.462;6.696;2023-02-15T03:29:10;3.30;99.90
7317;DHT22;3699;51.462;6.696;2023-02-15T03:31:40;3.40;99.90
7317;DHT22;3699;51.462;6.696;2023-02-15T03:34:11;3.40;99.90
7317;DHT22;3699;51.462;6.696;2023-02-15T03:36:44;3.50;99.90
7317;DHT22;3699;51.462;6.696;2023-02-15T03:39:18;3.10;99.90
7317;DHT22;3699;51.462;6.696;2023-02-15T03:41:52;3.00;99.90
7317;DHT22;3699;51.462;6.696;2023-02-15T03:44:27;3.10;99.90
7317;DHT22;3699;51.462;6.696;2023-02-15T03:46:58;3.10;99.90
7317;DHT22;3699;51.462;6.696;2023-02-15T03:51:58;3.00;99.90
7317;DHT22;3699;51.462;6.696;2023-02-15T03:54:28;3.00;99.90
7317;DHT22;3699;51.462;6.696;2023-02-15T03:57:17;3.00;99.90
7317;DHT22;3699;51.462;6.696;2023-02-15T04:00:04;3.00;99.90
7317;DHT22;3699;51.462;6.696;2023-02-15T04:03:07;2.90;99.90
7317;DHT22;3699;51.462;6.696;2023-02-15T04:05:37;2.90;99.90
7317;DHT22;3699;51.462;6.696;2023-02-15T04:08:04;3.00;99.90
7317;DHT22;3699;51.462;6.696;2023-02-15T04:10:31;3.10;99.90
7317;DHT22;3699;51.462;6.696;2023-02-15T04:18:27;3.00;99.90
7317;DHT22;3699;51.462;6.696;2023-02-15T04:21:12;2.40;99.90
7317;DHT22;3699;51.462;6.696;2023-02-15T04:29:08;3.10;99.90
7317;DHT22;3699;51.462;6.696;2023-02-15T04:31:35;2.80;99.90
7317;DHT22;3699;51.462;6.696;2023-02-15T04:34:02;3.10;99.90
7317;DHT22;3699;51.462;6.696;2023-02-15T04:36:30;3.00;99.90
7317;DHT22;3699;51.462;6.696;2023-02-15T04:41:23;3.00;99.90
7317;DHT22;3699;51.462;6.696;2023-02-15T04:43:50;3.00;99.90
7317;DHT22;3699;51.462;6.696;2023-02-15T04:46:17;3.00;99.90
7317;DHT22;3699;51.462;6.696;2023-02-15T04:48:43;3.20;99.90
7317;DHT22;3699;51.462;6.696;2023-02-15T04:51:10;2.90;99.90
7317;DHT22;3699;51.462;6.696;2023-02-15T04:53:38;3.10;99.90
7317;DHT22;3699;51.462;6.696;2023-02-15T04:56:05;3.10;99.90
7317;DHT22;3699;51.462;6.696;2023-02-15T04:58:32;3.40;99.90
7317;DHT22;3699;51.462;6.696;2023-02-15T05:00:58;3.30;99.90
7317;DHT22;3699;51.462;6.696;2023-02-15T05:05:52;3.20;99.90
7317;DHT22;3699;51.462;6.696;2023-02-15T05:10:49;3.40;99.90
7317;DHT22;3699;51.462;6.696;2023-02-15T05:13:16;4.00;99.90
7317;DHT22;3699;51.462;6.696;2023-02-15T05:15:47;3.50;99.90
7317;DHT22;3699;51.462;6.696;2023-02-15T05:20:41;3.50;99.90
7317;DHT22;3699;51.462;6.696;2023-02-15T05:25:35;3.60;99.90
7317;DHT22;3699;51.462;6.696;2023-02-15T05:28:21;3.50;99.90
7317;DHT22;3699;51.462;6.696;2023-02-15T05:33:16;3.60;99.90
7317;DHT22;3699;51.462;6.696;2023-02-15T05:40:37;3.70;99.90
7317;DHT22;3699;51.462;6.696;2023-02-15T05:45:32;3.80;99.90
7317;DHT22;3699;51.462;6.696;2023-02-15T05:50:26;3.80;99.90
7317;DHT22;3699;51.462;6.696;2023-02-15T05:55:20;4.00;99.90
7317;DHT22;3699;51.462;6.696;2023-02-15T06:00:14;4.00;99.90
7317;DHT22;3699;51.462;6.696;2023-02-15T06:02:42;3.80;99.90
7317;DHT22;3699;51.462;6.696;2023-02-15T06:07:36;4.20;99.90
7317;DHT22;3699;51.462;6.696;2023-02-15T06:10:04;3.70;99.90
7317;DHT22;3699;51.462;6.696;2023-02-15T06:12:31;3.90;99.90
7317;DHT22;3699;51.462;6.696;2023-02-15T06:17:24;3.70;99.90
7317;DHT22;3699;51.462;6.696;2023-02-15T06:19:52;3.80;99.90
7317;DHT22;3699;51.462;6.696;2023-02-15T06:22:19;3.70;99.90
7317;DHT22;3699;51.462;6.696;2023-02-15T06:24:46;3.90;99.90
7317;DHT22;3699;51.462;6.696;2023-02-15T06:27:13;3.60;99.90
7317;DHT22;3699;51.462;6.696;2023-02-15T06:29:40;3.90;99.90
7317;DHT22;3699;51.462;6.696;2023-02-15T06:34:33;3.60;99.90
7317;DHT22;3699;51.462;6.696;2023-02-15T06:37:01;3.90;99.90
7317;DHT22;3699;51.462;6.696;2023-02-15T06:39:28;3.80;99.90
7317;DHT22;3699;51.462;6.696;2023-02-15T06:41:55;4.00;99.90
7317;DHT22;3699;51.462;6.696;2023-02-15T06:44:21;3.90;99.90
7317;DHT22;3699;51.462;6.696;2023-02-15T06:46:48;3.80;99.90
7317;DHT22;3699;51.462;6.696;2023-02-15T06:49:15;3.80;99.90
7317;DHT22;3699;51.462;6.696;2023-02-15T06:51:41;4.00;99.90
7317;DHT22;3699;51.462;6.696;2023-02-15T06:54:09;4.00;99.90
7317;DHT22;3699;51.462;6.696;2023-02-15T06:59:04;3.80;99.90
7317;DHT22;3699;51.462;6.696;2023-02-15T07:01:31;3.80;99.90
7317;DHT22;3699;51.462;6.696;2023-02-15T07:03:57;3.90;99.90
7317;DHT22;3699;51.462;6.696;2023-02-15T07:06:24;4.00;99.90
7317;DHT22;3699;51.462;6.696;2023-02-15T07:11:19;3.90;99.90
7317;DHT22;3699;51.462;6.696;2023-02-15T07:16:31;4.10;99.90
7317;DHT22;3699;51.462;6.696;2023-02-15T07:18:57;4.00;99.90
7317;DHT22;3699;51.462;6.696;2023-02-15T07:21:24;4.00;99.90
7317;DHT22;3699;51.462;6.696;2023-02-15T07:23:51;4.00;99.90
7317;DHT22;3699;51.462;6.696;2023-02-15T07:28:46;4.30;99.90
7317;DHT22;3699;51.462;6.696;2023-02-15T07:31:13;4.40;99.90
7317;DHT22;3699;51.462;6.696;2023-02-15T07:36:07;4.60;99.90
7317;DHT22;3699;51.462;6.696;2023-02-15T07:38:36;4.50;99.90
7317;DHT22;3699;51.462;6.696;2023-02-15T07:41:05;4.40;99.90
7317;DHT22;3699;51.462;6.696;2023-02-15T07:43:34;4.50;99.90
7317;DHT22;3699;51.462;6.696;2023-02-15T07:46:03;4.50;99.90
7317;DHT22;3699;51.462;6.696;2023-02-15T07:50:59;4.90;99.90
7317;DHT22;3699;51.462;6.696;2023-02-15T07:53:25;5.00;99.90
7317;DHT22;3699;51.462;6.696;2023-02-15T07:55:52;4.80;99.90
7317;DHT22;3699;51.462;6.696;2023-02-15T07:58:20;5.30;99.90
7317;DHT22;3699;51.462;6.696;2023-02-15T08:01:08;4.80;99.90
7317;DHT22;3699;51.462;6.696;2023-02-15T08:03:35;4.70;99.90
7317;DHT22;3699;51.462;6.696;2023-02-15T08:06:01;4.90;99.90
7317;DHT22;3699;51.462;6.696;2023-02-15T08:10:59;5.00;99.90
7317;DHT22;3699;51.462;6.696;2023-02-15T08:13:45;5.00;99.90
7317;DHT22;3699;51.462;6.696;2023-02-15T08:16:22;4.70;99.90
7317;DHT22;3699;51.462;6.696;2023-02-15T08:18:49;5.40;99.90
7317;DHT22;3699;51.462;6.696;2023-02-15T08:26:11;5.60;99.90
7317;DHT22;3699;51.462;6.696;2023-02-15T08:28:38;5.80;99.90
7317;DHT22;3699;51.462;6.696;2023-02-15T08:31:05;5.90;99.90
7317;DHT22;3699;51.462;6.696;2023-02-15T08:33:34;6.10;99.90
7317;DHT22;3699;51.462;6.696;2023-02-15T08:36:05;6.20;99.90
7317;DHT22;3699;51.462;6.696;2023-02-15T08:41:09;6.60;99.90
7317;DHT22;3699;51.462;6.696;2023-02-15T08:43:38;6.80;99.90
7317;DHT22;3699;51.462;6.696;2023-02-15T08:46:06;6.80;99.90
7317;DHT22;3699;51.462;6.696;2023-02-15T08:48:34;6.90;99.90
7317;DHT22;3699;51.462;6.696;2023-02-15T08:51:05;7.00;99.90
7317;DHT22;3699;51.462;6.696;2023-02-15T08:53:32;7.40;99.90
7317;DHT22;3699;51.462;6.696;2023-02-15T08:55:59;7.20;99.90
7317;DHT22;3699;51.462;6.696;2023-02-15T08:58:27;7.30;99.90
7317;DHT22;3699;51.462;6.696;2023-02-15T09:03:21;7.30;99.90
7317;DHT22;3699;51.462;6.696;2023-02-15T09:05:50;7.40;99.90
7317;DHT22;3699;51.462;6.696;2023-02-15T09:13:11;7.70;99.90
7317;DHT22;3699;51.462;6.696;2023-02-15T09:15:38;7.70;99.90
7317;DHT22;3699;51.462;6.696;2023-02-15T09:18:05;7.90;99.90
7317;DHT22;3699;51.462;6.696;2023-02-15T09:20:35;8.00;99.90
7317;DHT22;3699;51.462;6.696;2023-02-15T09:23:03;8.30;99.90
7317;DHT22;3699;51.462;6.696;2023-02-15T09:30:24;8.60;99.90
7317;DHT22;3699;51.462;6.696;2023-02-15T09:37:45;9.10;99.90
7317;DHT22;3699;51.462;6.696;2023-02-15T09:40:15;8.80;99.90
7317;DHT22;3699;51.462;6.696;2023-02-15T09:42:55;9.00;99.90
7317;DHT22;3699;51.462;6.696;2023-02-15T09:45:37;9.00;99.90
7317;DHT22;3699;51.462;6.696;2023-02-15T09:48:19;9.20;99.90
7317;DHT22;3699;51.462;6.696;2023-02-15T09:50:59;9.40;99.90
7317;DHT22;3699;51.462;6.696;2023-02-15T09:53:52;9.20;99.90
7317;DHT22;3699;51.462;6.696;2023-02-15T09:56:31;9.40;99.90
7317;DHT22;3699;51.462;6.696;2023-02-15T09:59:08;9.10;99.90
7317;DHT22;3699;51.462;6.696;2023-02-15T10:01:43;9.30;99.90
7317;DHT22;3699;51.462;6.696;2023-02-15T10:04:27;13.60;99.90
7317;DHT22;3699;51.462;6.696;2023-02-15T10:07:07;9.60;99.90
7317;DHT22;3699;51.462;6.696;2023-02-15T10:09:51;9.10;99.90
7317;DHT22;3699;51.462;6.696;2023-02-15T10:12:36;9.80;99.90
7317;DHT22;3699;51.462;6.696;2023-02-15T10:15:21;9.80;99.90
7317;DHT22;3699;51.462;6.696;2023-02-15T10:18:05;10.00;99.90
7317;DHT22;3699;51.462;6.696;2023-02-15T10:20:45;9.70;99.90
7317;DHT22;3699;51.462;6.696;2023-02-15T10:23:29;10.30;99.90
7317;DHT22;3699;51.462;6.696;2023-02-15T10:26:05;10.30;99.90
7317;DHT22;3699;51.462;6.696;2023-02-15T10:28:43;10.20;99.90
7317;DHT22;3699;51.462;6.696;2023-02-15T10:31:21;10.20;99.90
7317;DHT22;3699;51.462;6.696;2023-02-15T10:34:00;10.10;99.90
7317;DHT22;3699;51.462;6.696;2023-02-15T10:36:38;9.70;99.90
7317;DHT22;3699;51.462;6.696;2023-02-15T10:39:18;10.50;99.90
7317;DHT22;3699;51.462;6.696;2023-02-15T10:41:50;10.60;99.90
7317;DHT22;3699;51.462;6.696;2023-02-15T10:44:38;10.80;99.90
7317;DHT22;3699;51.462;6.696;2023-02-15T10:47:21;10.30;99.90
7317;DHT22;3699;51.462;6.696;2023-02-15T10:50:09;10.60;99.90
7317;DHT22;3699;51.462;6.696;2023-02-15T10:52:49;10.80;99.90
7317;DHT22;3699;51.462;6.696;2023-02-15T10:55:26;11.00;99.90
7317;DHT22;3699;51.462;6.696;2023-02-15T10:58:03;10.80;99.90
7317;DHT22;3699;51.462;6.696;2023-02-15T11:00:39;10.80;99.90
7317;DHT22;3699;51.462;6.696;2023-02-15T11:03:25;10.90;99.90
7317;DHT22;3699;51.462;6.696;2023-02-15T11:06:01;10.90;99.90
7317;DHT22;3699;51.462;6.696;2023-02-15T11:08:32;11.10;99.90
7317;DHT22;3699;51.462;6.696;2023-02-15T11:11:03;11.40;99.90
7317;DHT22;3699;51.462;6.696;2023-02-15T11:13:34;11.10;99.90
7317;DHT22;3699;51.462;6.696;2023-02-15T11:16:06;11.20;99.90
7317;DHT22;3699;51.462;6.696;2023-02-15T11:18:36;11.30;99.90
7317;DHT22;3699;51.462;6.696;2023-02-15T11:21:07;11.40;99.90
7317;DHT22;3699;51.462;6.696;2023-02-15T11:23:38;11.40;99.90
7317;DHT22;3699;51.462;6.696;2023-02-15T11:26:14;11.30;99.90
7317;DHT22;3699;51.462;6.696;2023-02-15T11:28:46;11.30;99.90
7317;DHT22;3699;51.462;6.696;2023-02-15T11:31:19;11.60;99.90
7317;DHT22;3699;51.462;6.696;2023-02-15T11:33:52;11.40;99.90
7317;DHT22;3699;51.462;6.696;2023-02-15T11:36:22;11.90;99.90
7317;DHT22;3699;51.462;6.696;2023-02-15T11:38:56;11.60;99.60
7317;DHT22;3699;51.462;6.696;2023-02-15T11:41:27;11.20;98.60
7317;DHT22;3699;51.462;6.696;2023-02-15T11:43:58;11.20;99.90
7317;DHT22;3699;51.462;6.696;2023-02-15T11:46:27;11.20;99.90
7317;DHT22;3699;51.462;6.696;2023-02-15T11:51:22;11.10;99.90
7317;DHT22;3699;51.462;6.696;2023-02-15T11:53:49;11.20;99.90
7317;DHT22;3699;51.462;6.696;2023-02-15T11:56:19;11.20;99.90
7317;DHT22;3699;51.462;6.696;2023-02-15T11:58:50;11.40;99.90
7317;DHT22;3699;51.462;6.696;2023-02-15T12:01:23;11.50;99.90
7317;DHT22;3699;51.462;6.696;2023-02-15T12:03:54;11.60;99.90
7317;DHT22;3699;51.462;6.696;2023-02-15T12:06:25;11.70;99.90
7317;DHT22;3699;51.462;6.696;2023-02-15T12:09:00;11.80;99.90
7317;DHT22;3699;51.462;6.696;2023-02-15T12:11:33;11.90;99.90
7317;DHT22;3699;51.462;6.696;2023-02-15T12:14:03;11.90;99.40
7317;DHT22;3699;51.462;6.696;2023-02-15T12:16:33;11.90;99.20
7317;DHT22;3699;51.462;6.696;2023-02-15T12:19:02;11.90;97.70
7317;DHT22;3699;51.462;6.696;2023-02-15T12:21:31;11.90;93.10
7317;DHT22;3699;51.462;6.696;2023-02-15T12:24:16;12.00;94.10
7317;DHT22;3699;51.462;6.696;2023-02-15T12:29:15;12.30;94.90
7317;DHT22;3699;51.462;6.696;2023-02-15T12:31:45;12.10;97.00
7317;DHT22;3699;51.462;6.696;2023-02-15T12:34:19;12.20;95.70
7317;DHT22;3699;51.462;6.696;2023-02-15T12:36:48;12.30;99.40
7317;DHT22;3699;51.462;6.696;2023-02-15T12:39:19;12.30;95.60
7317;DHT22;3699;51.462;6.696;2023-02-15T12:41:56;12.50;98.90
7317;DHT22;3699;51.462;6.696;2023-02-15T12:44:26;12.60;99.80
7317;DHT22;3699;51.462;6.696;2023-02-15T12:46:59;13.00;90.50
7317;DHT22;3699;51.462;6.696;2023-02-15T12:49:28;12.70;84.10
7317;DHT22;3699;51.462;6.696;2023-02-15T12:51:57;12.70;90.50
7317;DHT22;3699;51.462;6.696;2023-02-15T12:54:36;12.80;94.40
7317;DHT22;3699;51.462;6.696;2023-02-15T12:57:24;12.80;90.90
7317;DHT22;3699;51.462;6.696;2023-02-15T12:59:54;12.80;91.10
7317;DHT22;3699;51.462;6.696;2023-02-15T13:02:24;12.90;85.20
7317;DHT22;3699;51.462;6.696;2023-02-15T13:04:53;12.90;80.00
7317;DHT22;3699;51.462;6.696;2023-02-15T13:07:21;12.50;93.50
7317;DHT22;3699;51.462;6.696;2023-02-15T13:09:49;12.60;96.40
7317;DHT22;3699;51.462;6.696;2023-02-15T13:12:20;13.10;97.00
7317;DHT22;3699;51.462;6.696;2023-02-15T13:14:50;13.20;95.70
7317;DHT22;3699;51.462;6.696;2023-02-15T13:17:20;13.30;94.10
7317;DHT22;3699;51.462;6.696;2023-02-15T13:19:51;13.20;94.30
7317;DHT22;3699;51.462;6.696;2023-02-15T13:22:23;13.20;90.70
7317;DHT22;3699;51.462;6.696;2023-02-15T13:24:54;13.20;95.50
7317;DHT22;3699;51.462;6.696;2023-02-15T13:27:24;13.20;90.00
7317;DHT22;3699;51.462;6.696;2023-02-15T13:29:55;13.50;86.30
7317;DHT22;3699;51.462;6.696;2023-02-15T13:32:27;13.40;78.00
7317;DHT22;3699;51.462;6.696;2023-02-15T13:34:57;13.60;86.20
7317;DHT22;3699;51.462;6.696;2023-02-15T13:37:36;13.50;87.20
7317;DHT22;3699;51.462;6.696;2023-02-15T13:40:08;13.30;89.30
7317;DHT22;3699;51.462;6.696;2023-02-15T13:42:41;13.50;86.20
7317;DHT22;3699;51.462;6.696;2023-02-15T13:45:28;13.60;74.40
7317;DHT22;3699;51.462;6.696;2023-02-15T13:48:01;13.50;64.00
7317;DHT22;3699;51.462;6.696;2023-02-15T13:50:43;13.60;74.40
7317;DHT22;3699;51.462;6.696;2023-02-15T13:53:25;13.50;73.70
7317;DHT22;3699;51.462;6.696;2023-02-15T13:55:57;13.40;76.20
7317;DHT22;3699;51.462;6.696;2023-02-15T13:58:40;13.70;77.20
7317;DHT22;3699;51.462;6.696;2023-02-15T14:01:15;13.70;78.50
7317;DHT22;3699;51.462;6.696;2023-02-15T14:04:22;13.60;76.60
7317;DHT22;3699;51.462;6.696;2023-02-15T14:09:56;13.50;66.30
7317;DHT22;3699;51.462;6.696;2023-02-15T14:12:37;13.90;73.20
7317;DHT22;3699;51.462;6.696;2023-02-15T14:15:13;13.30;68.90
7317;DHT22;3699;51.462;6.696;2023-02-15T14:17:51;11.50;61.00
7317;DHT22;3699;51.462;6.696;2023-02-15T14:20:36;13.60;70.50
7317;DHT22;3699;51.462;6.696;2023-02-15T14:23:11;12.70;68.30
7317;DHT22;3699;51.462;6.696;2023-02-15T14:25:49;13.30;63.50
7317;DHT22;3699;51.462;6.696;2023-02-15T14:28:22;13.50;68.60
7317;DHT22;3699;51.462;6.696;2023-02-15T14:30:53;13.20;70.50
7317;DHT22;3699;51.462;6.696;2023-02-15T14:33:33;13.20;65.20
7317;DHT22;3699;51.462;6.696;2023-02-15T14:36:01;13.00;67.00
7317;DHT22;3699;51.462;6.696;2023-02-15T14:38:39;13.10;65.00
7317;DHT22;3699;51.462;6.696;2023-02-15T14:41:15;13.00;63.60
7317;DHT22;3699;51.462;6.696;2023-02-15T14:43:55;13.20;72.20
7317;DHT22;3699;51.462;6.696;2023-02-15T14:46:29;13.10;64.50
7317;DHT22;3699;51.462;6.696;2023-02-15T14:49:03;13.20;76.70
7317;DHT22;3699;51.462;6.696;2023-02-15T14:51:55;13.10;84.20
7317;DHT22;3699;51.462;6.696;2023-02-15T14:54:58;13.00;78.00
7317;DHT22;3699;51.462;6.696;2023-02-15T14:57:27;13.00;73.30
7317;DHT22;3699;51.462;6.696;2023-02-15T14:59:58;13.00;85.00
7317;DHT22;3699;51.462;6.696;2023-02-15T15:02:28;13.20;83.50
7317;DHT22;3699;51.462;6.696;2023-02-15T15:05:07;13.20;85.00
7317;DHT22;3699;51.462;6.696;2023-02-15T15:07:42;13.00;85.80
7317;DHT22;3699;51.462;6.696;2023-02-15T15:10:41;12.90;85.70
7317;DHT22;3699;51.462;6.696;2023-02-15T15:13:53;13.30;88.10
7317;DHT22;3699;51.462;6.696;2023-02-15T15:19:11;12.80;87.90
7317;DHT22;3699;51.462;6.696;2023-02-15T15:21:54;12.90;89.70
7317;DHT22;3699;51.462;6.696;2023-02-15T15:24:47;13.20;91.70
7317;DHT22;3699;51.462;6.696;2023-02-15T15:27:42;12.90;92.80
7317;DHT22;3699;51.462;6.696;2023-02-15T15:39:41;12.80;94.10
7317;DHT22;3699;51.462;6.696;2023-02-15T15:42:24;12.70;92.90
7317;DHT22;3699;51.462;6.696;2023-02-15T15:45:23;12.80;95.00
7317;DHT22;3699;51.462;6.696;2023-02-15T15:48:01;9.90;95.00
7317;DHT22;3699;51.462;6.696;2023-02-15T15:50:33;12.80;96.70
7317;DHT22;3699;51.462;6.696;2023-02-15T15:53:02;13.00;97.70
7317;DHT22;3699;51.462;6.696;2023-02-15T15:55:30;12.50;99.90
7317;DHT22;3699;51.462;6.696;2023-02-15T15:58:00;12.50;96.50
7317;DHT22;3699;51.462;6.696;2023-02-15T16:00:34;12.50;99.90
7317;DHT22;3699;51.462;6.696;2023-02-15T16:05:36;12.30;99.90
7317;DHT22;3699;51.462;6.696;2023-02-15T16:08:03;12.60;99.90
7317;DHT22;3699;51.462;6.696;2023-02-15T16:10:30;12.20;99.90
7317;DHT22;3699;51.462;6.696;2023-02-15T16:12:59;12.00;99.90
7317;DHT22;3699;51.462;6.696;2023-02-15T16:15:33;12.10;99.90
7317;DHT22;3699;51.462;6.696;2023-02-15T16:18:01;12.00;99.90
7317;DHT22;3699;51.462;6.696;2023-02-15T16:20:31;12.20;99.90
7317;DHT22;3699;51.462;6.696;2023-02-15T16:23:10;12.10;99.90
7317;DHT22;3699;51.462;6.696;2023-02-15T16:25:47;11.80;99.90
7317;DHT22;3699;51.462;6.696;2023-02-15T16:30:44;11.70;99.90
7317;DHT22;3699;51.462;6.696;2023-02-15T16:33:12;11.50;99.90
7317;DHT22;3699;51.462;6.696;2023-02-15T16:35:48;11.30;99.90
7317;DHT22;3699;51.462;6.696;2023-02-15T16:38:24;10.90;99.90
7317;DHT22;3699;51.462;6.696;2023-02-15T16:43:29;11.00;99.90
7317;DHT22;3699;51.462;6.696;2023-02-15T16:46:03;11.10;99.90
7317;DHT22;3699;51.462;6.696;2023-02-15T16:48:32;11.00;99.90
7317;DHT22;3699;51.462;6.696;2023-02-15T16:51:00;10.50;99.90
7317;DHT22;3699;51.462;6.696;2023-02-15T16:53:28;10.70;99.90
7317;DHT22;3699;51.462;6.696;2023-02-15T16:55:57;10.80;99.90
7317;DHT22;3699;51.462;6.696;2023-02-15T16:58:29;10.40;99.90
7317;DHT22;3699;51.462;6.696;2023-02-15T17:00:58;10.50;99.90
7317;DHT22;3699;51.462;6.696;2023-02-15T17:05:54;10.60;99.90
7317;DHT22;3699;51.462;6.696;2023-02-15T17:08:27;10.40;99.90
7317;DHT22;3699;51.462;6.696;2023-02-15T17:11:13;10.40;99.90
7317;DHT22;3699;51.462;6.696;2023-02-15T17:14:12;10.30;99.90
7317;DHT22;3699;51.462;6.696;2023-02-15T17:16:44;10.10;99.90
7317;DHT22;3699;51.462;6.696;2023-02-15T17:19:16;10.30;99.90
7317;DHT22;3699;51.462;6.696;2023-02-15T17:21:49;10.40;99.90
7317;DHT22;3699;51.462;6.696;2023-02-15T17:24:20;9.90;99.90
7317;DHT22;3699;51.462;6.696;2023-02-15T17:26:51;10.30;99.90
7317;DHT22;3699;51.462;6.696;2023-02-15T17:29:30;10.10;99.90
7317;DHT22;3699;51.462;6.696;2023-02-15T17:31:58;10.30;99.90
7317;DHT22;3699;51.462;6.696;2023-02-15T17:34:48;7.30;99.90
7317;DHT22;3699;51.462;6.696;2023-02-15T17:37:25;10.50;99.90
7317;DHT22;3699;51.462;6.696;2023-02-15T17:39:54;10.20;99.90
7317;DHT22;3699;51.462;6.696;2023-02-15T17:42:21;10.30;99.90
7317;DHT22;3699;51.462;6.696;2023-02-15T17:44:48;10.00;99.90
7317;DHT22;3699;51.462;6.696;2023-02-15T17:47:16;10.30;99.90
7317;DHT22;3699;51.462;6.696;2023-02-15T17:49:43;10.30;99.90
7317;DHT22;3699;51.462;6.696;2023-02-15T17:52:11;10.30;99.90
7317;DHT22;3699;51.462;6.696;2023-02-15T17:54:39;10.20;99.90
7317;DHT22;3699;51.462;6.696;2023-02-15T17:57:35;9.80;99.90
7317;DHT22;3699;51.462;6.696;2023-02-15T18:00:03;10.30;99.90
7317;DHT22;3699;51.462;6.696;2023-02-15T18:05:33;10.10;99.90
7317;DHT22;3699;51.462;6.696;2023-02-15T18:08:26;10.30;99.90
7317;DHT22;3699;51.462;6.696;2023-02-15T18:11:11;10.40;99.90
7317;DHT22;3699;51.462;6.696;2023-02-15T18:13:57;10.10;99.90
7317;DHT22;3699;51.462;6.696;2023-02-15T18:16:28;10.20;99.90
7317;DHT22;3699;51.462;6.696;2023-02-15T18:18:56;10.10;99.90
7317;DHT22;3699;51.462;6.696;2023-02-15T18:21:23;10.30;99.90
7317;DHT22;3699;51.462;6.696;2023-02-15T18:23:50;10.20;99.90
7317;DHT22;3699;51.462;6.696;2023-02-15T18:26:18;9.60;99.90
7317;DHT22;3699;51.462;6.696;2023-02-15T18:28:45;10.20;99.90
7317;DHT22;3699;51.462;6.696;2023-02-15T18:31:14;10.40;99.90
7317;DHT22;3699;51.462;6.696;2023-02-15T18:33:43;10.00;99.90
7317;DHT22;3699;51.462;6.696;2023-02-15T18:36:16;10.50;99.90
7317;DHT22;3699;51.462;6.696;2023-02-15T18:38:45;10.00;99.90
7317;DHT22;3699;51.462;6.696;2023-02-15T18:41:16;10.00;99.90
7317;DHT22;3699;51.462;6.696;2023-02-15T18:43:43;10.00;99.90
7317;DHT22;3699;51.462;6.696;2023-02-15T18:46:10;10.00;99.90
7317;DHT22;3699;51.462;6.696;2023-02-15T18:48:40;9.90;99.90
7317;DHT22;3699;51.462;6.696;2023-02-15T18:51:13;9.80;99.90
7317;DHT22;3699;51.462;6.696;2023-02-15T18:53:41;9.90;99.90
7317;DHT22;3699;51.462;6.696;2023-02-15T18:56:12;9.80;99.90
7317;DHT22;3699;51.462;6.696;2023-02-15T18:58:40;9.90;99.90
7317;DHT22;3699;51.462;6.696;2023-02-15T19:01:11;10.00;99.90
7317;DHT22;3699;51.462;6.696;2023-02-15T19:03:43;9.80;99.90
7317;DHT22;3699;51.462;6.696;2023-02-15T19:06:11;9.80;99.90
7317;DHT22;3699;51.462;6.696;2023-02-15T19:08:38;9.80;99.90
7317;DHT22;3699;51.462;6.696;2023-02-15T19:11:11;9.70;99.90
7317;DHT22;3699;51.462;6.696;2023-02-15T19:13:38;9.90;99.90